Columbia Falls, MT (59912)

3:51 PM MDT on April 26, 2017 (GMT -0600)
Eko | | Change Station

Elev 3040 ft 48.37 °N, 114.19 °W | Updated 48 seconds ago

Overcast
Overcast
47.7 °F
Feels Like 46 °F
N
4.7
Wind Variable Wind from ESE

Today
High -- | Low -- °F
--% Chance of Precip.
Yesterday
High -- | Low -- °F
Precip. -- in
Pressure 29.66 in
Visibility 10.0 miles
Clouds Mostly Cloudy 4800 ft
Mostly Cloudy 6000 ft
Windchill 46 °F
Dew Point 41 °F
Humidity 77%
Rainfall 0.33 in
Snow Depth Not available.
6:25 AM 8:44 PM
New Moon, 0% visible
METAR KCTB 262056Z AUTO VRB04KT 10SM BKN048 BKN060 08/M01 A2962 RMK AO2 SLP042 60000 T00781006 58015
Pressure 29.66 in
Visibility 10.0 miles
Clouds Mostly Cloudy 4800 ft
Mostly Cloudy 6000 ft
Windchill 46 °F
Dew Point 41 °F
Humidity 77%
Rainfall 0.33 in
Snow Depth Not available.
6:25 AM 8:44 PM
New Moon, 0% visible
METAR KCTB 262056Z AUTO VRB04KT 10SM BKN048 BKN060 08/M01 A2962 RMK AO2 SLP042 60000 T00781006 58015

Get Severe Weather Alerts

Thanks for signing up!

Be on the lookout for a verification email in your inbox.

You'll start receiving the daily forecast at 8 AM.

×

10-Day Weather Forecast

Almanac

Astronomy

Apr. 26, 2017 Rise Set
Actual Time
Civil Twilight
Nautical Twilight
Astronomical Twilight
Moon
Length of Visible Light
Length of Day
Tomorrow will be .
, % of the Moon is Illuminated

Today's Extremes

State Highs State Lows

Community

WunderPhotos

WunderBlog® & News

Nearby

Air Quality

  Air Quality AQ Index Pollutant
Not available.

Snow Depth

Station Depth Elevation

Earthquake Activity

City Distance Mag. Time & Date
Minimum magnitude displayed is 2.5.

Coastal Water Temperatures

Place Temperature

Stations

Nearby Weather Stations

Station Location Temp. Windchill Dew Point Humidity Wind Precip. Elev Updated Type
                   

Watches & Warnings

There are currently no watches in effect.